Time;durP1;ratioP1;P1;durP2;ratioP2;P2;SDS_P1;SDS_P2;PMS_P1;PMS_P2;Temp;Humidity;BMP_temperature;BMP_pressure;BME280_temperature;BME280_humidity;BME280_pressure;Samples;Min_cycle;Max_cycle;Signal;HPM_P1;HPM_P2
2023/01/09 00:01:32;;;;;;;6.55;2.60;;;7.50;99.90;;;;;;5082367;28;20092;-71
2023/01/09 00:03:57;;;;;;;4.90;2.40;;;7.50;99.90;;;;;;5108110;28;20510;-71
2023/01/09 00:06:23;;;;;;;6.97;2.65;;;7.40;99.90;;;;;;5089143;28;20130;-70
2023/01/09 00:08:49;;;;;;;4.55;2.30;;;7.50;99.90;;;;;;5091231;28;20406;-71
2023/01/09 00:11:14;;;;;;;4.97;2.30;;;7.50;99.90;;;;;;5093566;28;20036;-71
2023/01/09 00:13:40;;;;;;;7.28;2.47;;;7.60;99.90;;;;;;5090311;28;20040;-71
2023/01/09 00:16:07;;;;;;;5.57;2.60;;;7.60;99.90;;;;;;5096299;28;20040;-71
2023/01/09 00:18:34;;;;;;;5.95;2.70;;;7.60;99.90;;;;;;5079458;28;20050;-71
2023/01/09 00:21:01;;;;;;;9.35;2.92;;;7.60;99.90;;;;;;5080449;28;20040;-71
2023/01/09 00:23:27;;;;;;;4.20;2.65;;;7.60;99.90;;;;;;5103938;28;20479;-71
2023/01/09 00:26:11;;;;;;;6.65;2.67;;;7.50;99.90;;;;;;5077845;28;20044;-71
2023/01/09 00:28:38;;;;;;;5.70;2.85;;;7.60;99.90;;;;;;5088991;28;20084;-71
2023/01/09 00:31:05;;;;;;;7.53;3.50;;;7.60;99.90;;;;;;5078430;28;20124;-71
2023/01/09 00:33:34;;;;;;;6.40;3.10;;;7.60;99.90;;;;;;5086999;28;20048;-70
2023/01/09 00:36:00;;;;;;;6.07;3.58;;;7.60;99.90;;;;;;5090121;28;20491;-71
2023/01/09 00:38:26;;;;;;;6.20;3.65;;;7.50;99.90;;;;;;5088768;28;20452;-71
2023/01/09 00:40:54;;;;;;;7.35;3.28;;;7.60;99.90;;;;;;5089769;28;20052;-71
2023/01/09 00:43:23;;;;;;;5.53;3.63;;;7.50;99.90;;;;;;5082643;28;20051;-71
2023/01/09 00:45:49;;;;;;;6.80;3.58;;;7.50;99.90;;;;;;5079410;28;20036;-71
2023/01/09 00:48:25;;;;;;;7.73;4.10;;;7.50;99.90;;;;;;5084426;28;20055;-71
2023/01/09 00:50:58;;;;;;;7.43;3.92;;;7.50;99.90;;;;;;5090025;28;20044;-71
2023/01/09 00:53:27;;;;;;;8.60;3.88;;;7.50;99.90;;;;;;5087882;28;20613;-70
2023/01/09 00:55:57;;;;;;;9.05;3.95;;;7.50;99.90;;;;;;5081561;28;20153;-71
2023/01/09 00:58:23;;;;;;;8.40;4.40;;;7.60;99.90;;;;;;5084955;28;20044;-71
2023/01/09 01:00:48;;;;;;;6.05;4.10;;;7.60;99.90;;;;;;5088986;28;20089;-71
2023/01/09 01:03:14;;;;;;;7.88;3.95;;;7.60;99.90;;;;;;5090084;28;20051;-71
2023/01/09 01:08:24;;;;;;;6.63;4.32;;;7.60;99.90;;;;;;5094898;28;20462;-71
2023/01/09 01:10:50;;;;;;;7.32;4.28;;;7.60;99.90;;;;;;5092083;28;20119;-71
2023/01/09 01:13:16;;;;;;;7.28;4.50;;;7.60;99.90;;;;;;5089414;28;20127;-71
2023/01/09 01:15:43;;;;;;;8.85;4.60;;;7.60;99.90;;;;;;5091449;28;20082;-71
2023/01/09 01:18:10;;;;;;;7.97;4.70;;;7.60;99.90;;;;;;5089824;28;20043;-71
2023/01/09 01:20:38;;;;;;;6.95;5.18;;;7.60;99.90;;;;;;5089358;28;20080;-71
2023/01/09 01:23:04;;;;;;;7.93;4.47;;;7.60;99.90;;;;;;5089158;28;20275;-71
2023/01/09 01:25:29;;;;;;;6.00;4.47;;;7.70;99.90;;;;;;5085555;28;20044;-71
2023/01/09 01:27:55;;;;;;;7.50;4.80;;;7.70;99.90;;;;;;5086176;28;20043;-71
2023/01/09 01:30:21;;;;;;;8.02;4.90;;;7.70;99.90;;;;;;5088808;28;20040;-71
2023/01/09 01:32:46;;;;;;;7.28;5.13;;;7.70;99.90;;;;;;5090668;28;20043;-71
2023/01/09 01:35:12;;;;;;;7.68;5.22;;;7.70;99.90;;;;;;5090497;28;20040;-71
2023/01/09 01:37:38;;;;;;;8.15;5.53;;;7.60;99.90;;;;;;5086965;28;20127;-71
2023/01/09 01:40:06;;;;;;;8.32;5.20;;;7.70;99.90;;;;;;5089117;28;20036;-71
2023/01/09 01:42:32;;;;;;;8.82;5.70;;;7.70;99.90;;;;;;5088863;28;20048;-71
2023/01/09 01:45:09;;;;;;;7.72;6.93;;;7.70;99.90;;;;;;5087407;28;20402;-71
2023/01/09 01:47:49;;;;;;;8.38;6.63;;;7.70;99.90;;;;;;5082018;28;20415;-71
2023/01/09 01:50:22;;;;;;;7.80;6.10;;;7.70;99.90;;;;;;5086300;28;20040;-71
2023/01/09 01:52:58;;;;;;;7.63;6.40;;;7.70;99.90;;;;;;5087424;28;20163;-71
2023/01/09 01:55:24;;;;;;;6.95;5.82;;;7.70;99.90;;;;;;5087209;28;20047;-69
2023/01/09 01:57:54;;;;;;;6.05;5.15;;;7.70;99.90;;;;;;5086398;28;20063;-71
2023/01/09 02:00:22;;;;;;;7.13;4.65;;;7.60;99.90;;;;;;5081922;28;20042;-71
2023/01/09 02:02:48;;;;;;;5.95;4.20;;;7.60;99.90;;;;;;5086634;28;20040;-71
2023/01/09 02:05:14;;;;;;;5.18;3.67;;;7.50;99.90;;;;;;5087458;28;20391;-71
2023/01/09 02:07:40;;;;;;;4.93;3.30;;;7.60;99.90;;;;;;5085757;28;20093;-71
2023/01/09 02:10:06;;;;;;;3.75;2.70;;;7.60;99.90;;;;;;5087354;28;20437;-71
2023/01/09 02:12:32;;;;;;;5.85;2.97;;;7.60;99.90;;;;;;5082629;28;20621;-71
2023/01/09 02:15:02;;;;;;;3.70;2.40;;;7.50;99.90;;;;;;5088262;28;20032;-71
2023/01/09 02:18:00;;;;;;;3.47;2.20;;;7.60;99.90;;;;;;5088623;28;20126;-71
2023/01/09 02:20:54;;;;;;;2.90;1.90;;;7.60;99.90;;;;;;5085182;28;20051;-71
2023/01/09 02:23:57;;;;;;;3.28;1.70;;;7.60;99.90;;;;;;5086955;28;20118;-71
2023/01/09 02:26:46;;;;;;;2.25;1.70;;;7.50;99.90;;;;;;5089248;28;20098;-71
2023/01/09 02:29:39;;;;;;;3.55;1.50;;;7.50;99.90;;;;;;5088925;28;20048;-71
2023/01/09 02:32:29;;;;;;;5.30;1.40;;;7.50;99.90;;;;;;5088071;28;20122;-71
2023/01/09 02:35:20;;;;;;;2.42;1.17;;;7.40;99.90;;;;;;5088026;28;20044;-71
2023/01/09 02:38:08;;;;;;;1.48;1.20;;;7.40;99.90;;;;;;5089959;28;20088;-71
2023/01/09 02:40:50;;;;;;;1.33;0.98;;;7.40;99.90;;;;;;5088140;28;20044;-71
2023/01/09 02:43:16;;;;;;;2.22;0.90;;;7.30;99.90;;;;;;5084777;28;20056;-71
2023/01/09 02:45:42;;;;;;;2.50;1.00;;;7.30;99.90;;;;;;5085773;28;20036;-71
2023/01/09 02:48:10;;;;;;;1.67;0.90;;;7.30;99.90;;;;;;5084427;28;20048;-71
2023/01/09 02:50:43;;;;;;;1.55;0.77;;;7.20;99.90;;;;;;5083794;28;20040;-71
2023/01/09 02:53:30;;;;;;;1.50;0.90;;;7.20;99.90;;;;;;5087973;28;20052;-71
2023/01/09 02:56:27;;;;;;;2.65;1.17;;;7.20;99.90;;;;;;5086885;28;20040;-71
2023/01/09 02:59:04;;;;;;;2.25;0.95;;;7.20;99.90;;;;;;5083767;28;20110;-71
2023/01/09 03:01:45;;;;;;;2.35;1.00;;;7.20;99.90;;;;;;5084282;28;20059;-71
2023/01/09 03:04:24;;;;;;;2.70;1.02;;;7.20;99.90;;;;;;5081359;28;20048;-71
2023/01/09 03:06:57;;;;;;;1.92;0.98;;;7.10;99.90;;;;;;5089245;28;20055;-71
2023/01/09 03:09:26;;;;;;;1.73;0.95;;;7.10;99.90;;;;;;5088386;28;20040;-72
2023/01/09 03:12:06;;;;;;;2.55;0.98;;;7.10;99.90;;;;;;5080860;28;20048;-71
2023/01/09 03:14:33;;;;;;;1.40;0.82;;;7.00;99.90;;;;;;5087612;28;20048;-71
2023/01/09 03:17:05;;;;;;;3.47;1.10;;;7.10;99.90;;;;;;5087970;28;20063;-71
2023/01/09 03:19:33;;;;;;;2.38;1.02;;;7.00;99.90;;;;;;5084628;28;20051;-71
2023/01/09 03:21:59;;;;;;;2.65;1.30;;;7.00;99.90;;;;;;5071570;28;20058;-71
2023/01/09 03:24:24;;;;;;;3.03;1.35;;;6.90;99.90;;;;;;5087191;28;20051;-71
2023/01/09 03:26:50;;;;;;;3.72;1.70;;;6.90;99.90;;;;;;5090875;28;20036;-71
2023/01/09 03:29:16;;;;;;;3.45;1.70;;;6.80;99.90;;;;;;5091045;28;20036;-71
2023/01/09 03:31:41;;;;;;;2.95;1.67;;;6.80;99.90;;;;;;5092016;28;20040;-71
2023/01/09 03:34:07;;;;;;;2.88;1.75;;;6.80;99.90;;;;;;5094306;28;20227;-71
2023/01/09 03:36:33;;;;;;;3.17;1.85;;;6.80;99.90;;;;;;5090515;28;20405;-71
2023/01/09 03:38:58;;;;;;;4.28;2.03;;;6.80;99.90;;;;;;5093836;28;20455;-71
2023/01/09 03:41:24;;;;;;;4.15;2.30;;;6.70;99.90;;;;;;5091356;28;20052;-71
2023/01/09 03:43:49;;;;;;;4.65;2.17;;;6.80;99.90;;;;;;5091501;28;20044;-71
2023/01/09 03:46:15;;;;;;;6.00;2.42;;;6.70;99.90;;;;;;5092037;28;20569;-71
2023/01/09 03:48:41;;;;;;;4.68;2.35;;;6.70;99.90;;;;;;5093169;28;20044;-70
2023/01/09 03:51:07;;;;;;;7.60;2.80;;;6.70;99.90;;;;;;5090472;28;21974;-71
2023/01/09 03:53:32;;;;;;;6.13;2.35;;;6.60;99.90;;;;;;5090000;28;20059;-71
2023/01/09 03:55:58;;;;;;;5.60;2.60;;;6.60;99.90;;;;;;5092185;28;20109;-71
2023/01/09 03:58:25;;;;;;;4.60;2.83;;;6.60;99.90;;;;;;5090102;28;20051;-71
2023/01/09 04:00:55;;;;;;;5.78;2.83;;;6.60;99.90;;;;;;5089321;28;20036;-71
2023/01/09 04:03:21;;;;;;;4.40;2.55;;;6.60;99.90;;;;;;5090556;28;20040;-71
2023/01/09 04:05:48;;;;;;;6.18;3.20;;;6.50;99.90;;;;;;5088212;28;20042;-71
2023/01/09 04:08:15;;;;;;;8.13;3.20;;;6.50;99.90;;;;;;5093855;28;20048;-72
2023/01/09 04:10:44;;;;;;;7.88;3.50;;;6.50;99.90;;;;;;5091816;28;20091;-72
2023/01/09 04:13:09;;;;;;;6.30;3.20;;;6.50;99.90;;;;;;5093618;28;20055;-71
2023/01/09 04:15:35;;;;;;;6.25;3.95;;;6.40;99.90;;;;;;5093206;28;20126;-71
2023/01/09 04:18:02;;;;;;;6.30;4.13;;;6.40;99.90;;;;;;5093493;28;20036;-71
2023/01/09 04:20:28;;;;;;;8.57;4.88;;;6.40;99.90;;;;;;5090341;28;20568;-71
2023/01/09 04:22:53;;;;;;;10.10;4.95;;;6.50;99.90;;;;;;5089622;28;20169;-71
2023/01/09 04:25:21;;;;;;;12.23;5.45;;;6.40;99.90;;;;;;5092242;28;20388;-72
2023/01/09 04:27:47;;;;;;;;;;;6.40;99.90;;;;;;5088336;28;20059;-71
2023/01/09 04:30:13;;;;;;;12.00;5.53;;;6.40;99.90;;;;;;5104067;28;19928;-71
2023/01/09 04:32:38;;;;;;;9.90;5.63;;;6.40;99.90;;;;;;5084367;28;20041;-71
2023/01/09 04:35:05;;;;;;;10.25;6.07;;;6.40;99.90;;;;;;5085127;28;20402;-71
2023/01/09 04:37:30;;;;;;;8.00;6.47;;;6.40;99.90;;;;;;5080965;28;20505;-71
2023/01/09 04:39:56;;;;;;;11.73;7.05;;;6.30;99.90;;;;;;5091512;28;20044;-71
2023/01/09 04:42:23;;;;;;;9.27;7.18;;;6.30;99.90;;;;;;5084291;28;20036;-72
2023/01/09 04:44:52;;;;;;;12.47;7.50;;;6.40;99.90;;;;;;5091692;28;20040;-71
2023/01/09 04:47:19;;;;;;;9.98;6.72;;;6.30;99.90;;;;;;5085105;28;20808;-71
2023/01/09 04:49:44;;;;;;;11.95;7.75;;;6.40;99.90;;;;;;5090165;28;20047;-71
2023/01/09 04:52:10;;;;;;;11.30;7.60;;;6.30;99.90;;;;;;5083370;28;20040;-71
2023/01/09 04:54:38;;;;;;;12.82;7.95;;;6.40;99.90;;;;;;5083688;28;20133;-71
2023/01/09 04:57:04;;;;;;;11.48;7.63;;;6.30;99.90;;;;;;5088224;28;20049;-71
2023/01/09 04:59:29;;;;;;;12.05;8.23;;;6.30;99.90;;;;;;5085198;28;20043;-71
2023/01/09 05:01:57;;;;;;;14.27;8.57;;;6.30;99.90;;;;;;5086892;28;20044;-71
2023/01/09 05:04:23;;;;;;;13.88;8.70;;;6.30;99.90;;;;;;5083459;28;20055;-72
2023/01/09 05:06:48;;;;;;;13.38;8.85;;;6.30;99.90;;;;;;5092168;28;20115;-71
2023/01/09 05:09:14;;;;;;;12.57;8.25;;;6.30;99.90;;;;;;5088399;28;20437;-71
2023/01/09 05:11:40;;;;;;;10.05;7.07;;;6.30;99.90;;;;;;5090012;28;20044;-71
2023/01/09 05:14:06;;;;;;;12.13;7.93;;;6.30;99.90;;;;;;5091194;28;20044;-72
2023/01/09 05:16:31;;;;;;;10.80;7.68;;;6.20;99.90;;;;;;5091770;28;20047;-72
2023/01/09 05:18:59;;;;;;;11.55;7.22;;;6.30;99.90;;;;;;5090004;28;20423;-71
2023/01/09 05:21:25;;;;;;;10.50;7.40;;;6.20;99.90;;;;;;5084029;28;20048;-72
2023/01/09 05:23:51;;;;;;;13.38;7.65;;;6.20;99.90;;;;;;5090538;28;20048;-71
2023/01/09 05:26:22;;;;;;;12.48;7.68;;;6.20;99.90;;;;;;5083008;28;20135;-71
2023/01/09 05:28:49;;;;;;;10.90;7.22;;;6.20;99.90;;;;;;5091482;28;20119;-72
2023/01/09 05:31:14;;;;;;;11.55;8.18;;;6.30;99.90;;;;;;5087581;28;20048;-72
2023/01/09 05:33:40;;;;;;;12.13;7.88;;;6.20;99.90;;;;;;5084782;28;20040;-72
2023/01/09 05:36:06;;;;;;;11.07;7.78;;;6.20;99.90;;;;;;5083915;28;20407;-71
2023/01/09 05:38:32;;;;;;;12.20;7.63;;;6.10;99.90;;;;;;5080632;28;20040;-72
2023/01/09 05:40:57;;;;;;;11.95;8.00;;;6.10;99.90;;;;;;5084792;28;20047;-71
2023/01/09 05:43:23;;;;;;;11.98;7.93;;;6.10;99.90;;;;;;5089337;28;20063;-72
2023/01/09 05:45:48;;;;;;;11.05;7.28;;;6.10;99.90;;;;;;5088150;28;20715;-72
2023/01/09 05:48:14;;;;;;;13.07;7.85;;;6.10;99.90;;;;;;5091947;28;20051;-71
2023/01/09 05:50:40;;;;;;;13.25;7.35;;;6.10;99.90;;;;;;5086172;28;20452;-72
2023/01/09 05:53:05;;;;;;;11.32;7.93;;;6.10;99.90;;;;;;5088227;28;20320;-71
2023/01/09 05:55:31;;;;;;;11.32;8.15;;;6.10;99.90;;;;;;5088664;28;20058;-71
2023/01/09 05:57:57;;;;;;;9.27;7.95;;;6.10;99.90;;;;;;5088777;28;20047;-71
2023/01/09 06:00:23;;;;;;;11.80;7.20;;;6.10;99.90;;;;;;5085037;28;20079;-71
2023/01/09 06:02:48;;;;;;;11.93;7.47;;;6.10;99.90;;;;;;5088982;28;20036;-71
2023/01/09 06:05:14;;;;;;;13.38;7.07;;;6.00;99.90;;;;;;5087436;28;20142;-72
2023/01/09 06:07:40;;;;;;;12.48;7.07;;;6.00;99.90;;;;;;5086604;28;20404;-71
2023/01/09 06:10:11;;;;;;;13.90;7.00;;;6.00;99.90;;;;;;5088801;28;20512;-72
2023/01/09 06:12:37;;;;;;;10.73;6.43;;;6.00;99.90;;;;;;5082105;28;20630;-71
2023/01/09 06:15:03;;;;;;;11.60;6.78;;;6.00;99.90;;;;;;5089490;28;20039;-71
2023/01/09 06:17:29;;;;;;;9.50;5.70;;;6.00;99.90;;;;;;5078204;28;20132;-72
2023/01/09 06:19:55;;;;;;;8.77;5.30;;;6.00;99.90;;;;;;5087084;28;20102;-71
2023/01/09 06:22:20;;;;;;;9.15;5.47;;;6.00;99.90;;;;;;5086565;28;20043;-72
2023/01/09 06:24:46;;;;;;;9.43;5.00;;;5.90;99.90;;;;;;5087913;28;20047;-71
2023/01/09 06:27:12;;;;;;;11.50;5.35;;;6.00;99.90;;;;;;5089020;28;20036;-71
2023/01/09 06:29:38;;;;;;;8.23;4.70;;;6.00;99.90;;;;;;5089377;28;20032;-71
2023/01/09 06:32:04;;;;;;;7.25;4.18;;;6.00;99.90;;;;;;5087614;28;20039;-71
2023/01/09 06:34:29;;;;;;;8.35;4.32;;;6.00;99.90;;;;;;5086135;28;20162;-72
2023/01/09 06:36:55;;;;;;;6.70;4.45;;;6.00;99.90;;;;;;5088150;28;20186;-72
2023/01/09 06:39:21;;;;;;;8.55;4.25;;;6.00;99.90;;;;;;5085049;28;20483;-71
2023/01/09 06:41:46;;;;;;;10.45;4.60;;;6.00;99.90;;;;;;5078288;28;20128;-71
2023/01/09 06:44:13;;;;;;;8.30;4.25;;;5.90;99.90;;;;;;5081911;28;20403;-71
2023/01/09 06:46:38;;;;;;;7.53;4.13;;;5.90;99.90;;;;;;5079685;28;20500;-71
2023/01/09 06:49:04;;;;;;;8.27;4.20;;;5.90;99.90;;;;;;5085145;28;20167;-71
2023/01/09 06:51:30;;;;;;;8.88;4.22;;;5.90;99.90;;;;;;5085492;28;20038;-71
2023/01/09 06:53:56;;;;;;;7.72;4.30;;;5.90;99.90;;;;;;5085834;28;20253;-71
2023/01/09 06:56:22;;;;;;;8.02;4.10;;;5.90;99.90;;;;;;5085953;28;20051;-71
2023/01/09 06:58:47;;;;;;;8.98;4.75;;;5.90;99.90;;;;;;5082789;28;20853;-71
2023/01/09 07:01:13;;;;;;;9.38;4.53;;;5.90;99.90;;;;;;5081258;28;20032;-71
2023/01/09 07:03:39;;;;;;;8.30;4.15;;;5.90;99.90;;;;;;5081239;28;20102;-71
2023/01/09 07:06:06;;;;;;;10.02;4.35;;;5.90;99.90;;;;;;5087054;28;20036;-71
2023/01/09 07:08:33;;;;;;;8.88;4.60;;;5.90;99.90;;;;;;5088783;28;20123;-71
2023/01/09 07:10:58;;;;;;;8.05;4.60;;;5.90;99.90;;;;;;5105597;28;20565;-71
2023/01/09 07:13:24;;;;;;;12.48;4.57;;;5.90;99.90;;;;;;5092537;28;20126;-71
2023/01/09 07:15:52;;;;;;;9.80;3.83;;;5.90;99.90;;;;;;5087242;28;20502;-71
2023/01/09 07:18:18;;;;;;;11.98;4.35;;;5.90;99.90;;;;;;5087120;28;20044;-71
2023/01/09 07:20:44;;;;;;;9.50;4.35;;;5.90;99.90;;;;;;5083257;28;20151;-71
2023/01/09 07:23:13;;;;;;;11.07;4.90;;;5.90;99.90;;;;;;5089324;28;20123;-71
2023/01/09 07:25:40;;;;;;;8.70;4.18;;;6.00;99.90;;;;;;5085149;28;20104;-71
2023/01/09 07:28:06;;;;;;;8.32;4.47;;;6.00;99.90;;;;;;5089474;28;20115;-71
2023/01/09 07:30:32;;;;;;;9.88;4.43;;;6.00;99.90;;;;;;5094601;28;20111;-71
2023/01/09 07:32:59;;;;;;;9.38;4.40;;;6.00;99.90;;;;;;5077807;28;20052;-71
2023/01/09 07:35:25;;;;;;;6.85;4.30;;;6.00;99.90;;;;;;5084910;28;20128;-71
2023/01/09 07:37:50;;;;;;;8.75;4.13;;;6.10;99.90;;;;;;5085398;28;20059;-70
2023/01/09 07:40:16;;;;;;;11.73;4.13;;;6.10;99.90;;;;;;5097740;28;20044;-71
2023/01/09 07:42:42;;;;;;;9.65;4.10;;;6.10;99.90;;;;;;5103146;28;20030;-70
2023/01/09 07:45:08;;;;;;;11.52;4.10;;;6.10;99.90;;;;;;5101326;28;20040;-70
2023/01/09 07:47:34;;;;;;;10.07;3.80;;;6.10;99.90;;;;;;5088866;28;20066;-71
2023/01/09 07:50:00;;;;;;;8.90;4.47;;;6.10;99.90;;;;;;5088209;28;20454;-71
2023/01/09 07:52:26;;;;;;;11.75;4.18;;;6.20;99.90;;;;;;5085668;28;20055;-71
2023/01/09 07:54:53;;;;;;;9.77;4.57;;;6.20;99.90;;;;;;5085052;28;20053;-71
2023/01/09 07:57:19;;;;;;;9.73;4.22;;;6.20;99.90;;;;;;5086710;28;20069;-71
2023/01/09 07:59:45;;;;;;;8.55;4.30;;;6.20;99.90;;;;;;5087287;28;20558;-71
2023/01/09 08:02:11;;;;;;;12.45;4.00;;;6.20;99.90;;;;;;5082327;28;20127;-71
2023/01/09 08:04:37;;;;;;;11.63;4.10;;;6.20;99.90;;;;;;5083670;28;20095;-70
2023/01/09 08:07:02;;;;;;;9.82;3.90;;;6.30;99.90;;;;;;5086830;28;20071;-71
2023/01/09 08:09:29;;;;;;;10.82;4.38;;;6.30;99.90;;;;;;5086594;28;20099;-70
2023/01/09 08:11:56;;;;;;;8.18;3.60;;;6.30;99.90;;;;;;5081672;28;20044;-72
2023/01/09 08:14:22;;;;;;;12.63;4.13;;;6.30;99.90;;;;;;5085502;28;20379;-72
2023/01/09 08:16:48;;;;;;;11.95;4.13;;;6.30;99.90;;;;;;5081822;28;20052;-70
2023/01/09 08:19:14;;;;;;;11.75;3.80;;;6.30;99.90;;;;;;5088272;28;20059;-69
2023/01/09 08:21:39;;;;;;;10.32;4.32;;;6.30;99.90;;;;;;5084464;28;20042;-70
2023/01/09 08:24:05;;;;;;;11.77;3.67;;;6.40;99.90;;;;;;5087740;28;20075;-72
2023/01/09 08:26:31;;;;;;;12.65;4.15;;;6.30;99.90;;;;;;5087769;28;20093;-72
2023/01/09 08:28:57;;;;;;;13.00;4.50;;;6.40;99.90;;;;;;5087669;28;20432;-72
2023/01/09 08:31:22;;;;;;;12.35;4.35;;;6.40;99.90;;;;;;5087691;28;20044;-72
2023/01/09 08:33:48;;;;;;;11.18;4.30;;;6.40;99.90;;;;;;5090183;28;20092;-73
2023/01/09 08:36:14;;;;;;;9.63;4.25;;;6.40;99.90;;;;;;5089377;28;20498;-72
2023/01/09 08:38:40;;;;;;;13.50;5.45;;;6.40;99.90;;;;;;5089429;28;20127;-72
2023/01/09 08:49:19;;;;;;;9.32;4.38;;;6.50;99.90;;;;;;5089081;28;20403;-73
2023/01/09 08:51:45;;;;;;;9.40;4.43;;;6.50;99.90;;;;;;5090503;28;20040;-72
2023/01/09 08:54:11;;;;;;;10.73;4.70;;;6.50;99.90;;;;;;5090070;28;20392;-72
2023/01/09 08:56:37;;;;;;;9.50;4.22;;;6.60;99.90;;;;;;5090931;28;20056;-72
2023/01/09 08:59:02;;;;;;;13.02;4.07;;;6.60;99.90;;;;;;5091146;28;20044;-69
2023/01/09 09:01:28;;;;;;;12.60;4.55;;;6.60;99.90;;;;;;5093103;28;20036;-70
2023/01/09 09:03:54;;;;;;;10.68;3.95;;;6.60;99.90;;;;;;5089934;28;20040;-70
2023/01/09 09:06:19;;;;;;;12.68;4.18;;;6.60;99.90;;;;;;5088559;28;20032;-73
2023/01/09 09:08:45;;;;;;;10.80;4.35;;;6.70;99.90;;;;;;5092238;28;20120;-74
2023/01/09 09:11:11;;;;;;;12.10;4.40;;;6.70;99.90;;;;;;5090388;28;20036;-76
2023/01/09 09:13:36;;;;;;;9.90;3.78;;;6.70;99.90;;;;;;5091219;28;20521;-76
2023/01/09 09:16:02;;;;;;;10.50;4.30;;;6.70;99.90;;;;;;5089067;28;20040;-76
2023/01/09 09:18:28;;;;;;;9.90;4.15;;;6.70;99.90;;;;;;5092187;28;20051;-75
2023/01/09 09:20:53;;;;;;;14.65;4.25;;;6.80;99.90;;;;;;5089996;28;20028;-77
2023/01/09 09:23:19;;;;;;;15.05;4.70;;;6.80;99.90;;;;;;5090338;28;20036;-76
2023/01/09 09:25:45;;;;;;;9.75;3.88;;;6.80;99.90;;;;;;5092208;28;20040;-75
2023/01/09 09:28:11;;;;;;;12.20;4.05;;;6.80;99.90;;;;;;5090758;28;20045;-75
2023/01/09 09:30:37;;;;;;;9.82;3.80;;;6.90;99.90;;;;;;5088145;28;20582;-75
2023/01/09 09:33:04;;;;;;;12.13;3.80;;;6.90;99.90;;;;;;5088287;28;22446;-72
2023/01/09 09:35:32;;;;;;;10.90;3.75;;;6.90;99.90;;;;;;5084970;28;20048;-75
2023/01/09 09:38:00;;;;;;;12.32;4.07;;;6.90;99.90;;;;;;5083092;28;20048;-71
2023/01/09 09:40:29;;;;;;;10.38;3.80;;;7.00;99.90;;;;;;5087534;28;20283;-71
2023/01/09 09:46:26;;;;;;;8.68;3.90;;;7.00;99.90;;;;;;5088301;28;20329;-70
2023/01/09 09:49:27;;;;;;;11.25;3.90;;;7.00;99.90;;;;;;5090335;28;20048;-70
2023/01/09 09:52:28;;;;;;;9.23;3.90;;;7.10;99.90;;;;;;5055570;28;20104;-70
2023/01/09 09:54:57;;;;;;;12.60;3.95;;;7.10;99.90;;;;;;5088520;28;20497;-70
2023/01/09 09:57:33;;;;;;;9.57;3.90;;;7.20;99.90;;;;;;5091766;28;20040;-70
2023/01/09 09:59:59;;;;;;;9.68;3.65;;;7.30;99.90;;;;;;5084375;28;20566;-72
2023/01/09 10:02:31;;;;;;;10.00;3.60;;;7.30;99.90;;;;;;5089235;28;20130;-70
2023/01/09 10:05:28;;;;;;;10.00;3.35;;;7.30;99.90;;;;;;5090609;28;20104;-71
2023/01/09 10:07:57;;;;;;;8.25;2.83;;;7.40;99.90;;;;;;5083356;28;20154;-72
2023/01/09 10:10:31;;;;;;;10.18;3.45;;;7.40;99.90;;;;;;5084553;28;20044;-71
2023/01/09 10:12:58;;;;;;;10.38;3.00;;;7.30;99.90;;;;;;5089689;28;20435;-72
2023/01/09 10:15:30;;;;;;;10.65;3.05;;;7.30;99.90;;;;;;5088805;28;20055;-71
2023/01/09 10:18:07;;;;;;;10.70;3.38;;;7.30;99.90;;;;;;5091805;28;20048;-71
2023/01/09 10:20:58;;;;;;;8.50;3.20;;;7.30;99.90;;;;;;5081281;28;20052;-71
2023/01/09 10:23:50;;;;;;;10.77;3.35;;;7.30;99.90;;;;;;5088368;28;20086;-72
2023/01/09 10:26:40;;;;;;;7.97;3.47;;;7.20;99.90;;;;;;5090058;28;20048;-71
2023/01/09 10:29:24;;;;;;;6.70;3.05;;;7.20;99.90;;;;;;5087587;28;20082;-69
2023/01/09 10:32:05;;;;;;;9.10;3.90;;;7.20;99.90;;;;;;5086983;28;20035;-70
2023/01/09 10:34:39;;;;;;;9.65;3.42;;;7.20;99.90;;;;;;5089112;28;20042;-69
2023/01/09 10:37:13;;;;;;;9.93;3.67;;;7.20;99.90;;;;;;5089625;28;20042;-70
2023/01/09 10:39:39;;;;;;;10.93;3.75;;;7.20;99.90;;;;;;5087380;28;20471;-70
2023/01/09 10:42:17;;;;;;;7.28;3.42;;;7.20;99.90;;;;;;5088298;28;20043;-71
2023/01/09 10:45:04;;;;;;;7.75;3.25;;;7.10;99.90;;;;;;5091306;28;20040;-70
2023/01/09 10:47:34;;;;;;;6.25;3.47;;;7.20;99.90;;;;;;5086881;28;20048;-70
2023/01/09 10:50:06;;;;;;;9.77;3.53;;;7.20;99.90;;;;;;5088653;28;20494;-72
2023/01/09 10:52:37;;;;;;;8.75;3.72;;;7.20;99.90;;;;;;5085360;28;20063;-73
2023/01/09 10:55:34;;;;;;;8.20;3.30;;;7.20;99.90;;;;;;5087400;28;20098;-73
2023/01/09 10:58:19;;;;;;;5.25;3.20;;;7.30;99.90;;;;;;5091432;28;20051;-72
2023/01/09 11:00:46;;;;;;;7.88;3.70;;;7.20;99.90;;;;;;5086858;28;20032;-73
2023/01/09 11:03:13;;;;;;;7.82;3.92;;;7.20;99.90;;;;;;5089074;28;20102;-73
2023/01/09 11:05:39;;;;;;;6.35;3.88;;;7.20;99.90;;;;;;5085747;28;20044;-74
2023/01/09 11:08:07;;;;;;;8.07;5.22;;;7.20;99.90;;;;;;5082182;28;20036;-73
2023/01/09 11:10:55;;;;;;;8.50;4.65;;;7.20;99.90;;;;;;5087385;28;20047;-72
2023/01/09 11:13:25;;;;;;;8.75;4.80;;;7.20;99.90;;;;;;5089141;28;20402;-71
2023/01/09 11:16:18;;;;;;;7.93;4.40;;;7.20;99.90;;;;;;5090801;28;20051;-72
2023/01/09 11:18:53;;;;;;;11.30;6.50;;;7.20;99.90;;;;;;5089684;28;20048;-72
2023/01/09 11:21:37;;;;;;;7.90;5.32;;;7.20;99.90;;;;;;5086999;28;20094;-73
2023/01/09 11:24:22;;;;;;;7.53;4.97;;;7.20;99.90;;;;;;5083442;28;20399;-72
2023/01/09 11:26:51;;;;;;;5.90;4.07;;;7.20;99.90;;;;;;5097127;28;20047;-70
2023/01/09 11:29:20;;;;;;;6.10;4.47;;;7.30;99.90;;;;;;5094602;28;20048;-72
2023/01/09 11:31:57;;;;;;;8.20;4.65;;;7.20;99.90;;;;;;5087522;28;20052;-71
2023/01/09 11:34:33;;;;;;;6.80;4.85;;;7.20;99.90;;;;;;5086412;28;20551;-71
2023/01/09 11:37:07;;;;;;;8.90;5.72;;;7.20;99.90;;;;;;5089264;28;20032;-71
2023/01/09 11:39:36;;;;;;;8.80;5.10;;;7.20;99.90;;;;;;5081754;28;20051;-72
2023/01/09 11:42:05;;;;;;;7.57;5.20;;;7.20;99.90;;;;;;5109285;28;20048;-72
2023/01/09 11:44:31;;;;;;;8.02;5.75;;;7.20;99.90;;;;;;5109645;28;20083;-74
2023/01/09 11:46:58;;;;;;;9.77;5.57;;;7.10;99.90;;;;;;5112391;27;20044;-73
2023/01/09 11:49:26;;;;;;;9.30;5.70;;;7.20;99.90;;;;;;5092635;28;20040;-73
2023/01/09 11:52:11;;;;;;;8.32;6.47;;;7.20;99.90;;;;;;5089242;28;20050;-73
2023/01/09 11:54:39;;;;;;;11.90;6.30;;;7.20;99.90;;;;;;5098631;28;20051;-69
2023/01/09 11:57:07;;;;;;;9.32;7.32;;;7.20;99.90;;;;;;5091778;28;20418;-71
2023/01/09 11:59:32;;;;;;;10.27;8.27;;;7.10;99.90;;;;;;5099504;28;20051;-71
2023/01/09 12:02:35;;;;;;;8.75;7.30;;;7.20;99.90;;;;;;5105400;28;20119;-71
2023/01/09 12:05:43;;;;;;;10.43;7.65;;;7.20;99.90;;;;;;5113153;27;20264;-74
2023/01/09 12:08:14;;;;;;;10.75;8.43;;;7.20;99.90;;;;;;5074086;28;20044;-78
2023/01/09 12:11:02;;;;;;;13.00;8.93;;;7.10;99.90;;;;;;5081885;28;20059;-73
2023/01/09 12:13:39;;;;;;;11.50;9.27;;;7.10;99.90;;;;;;5093834;28;20068;-75
2023/01/09 12:16:20;;;;;;;13.65;10.50;;;7.20;99.90;;;;;;5091237;28;20052;-75
2023/01/09 12:19:04;;;;;;;10.95;9.75;;;7.20;99.90;;;;;;5084370;28;20032;-75
2023/01/09 12:21:35;;;;;;;13.40;10.43;;;7.20;99.90;;;;;;5084526;28;20507;-75
2023/01/09 12:24:18;;;;;;;14.63;10.60;;;7.20;99.90;;;;;;5091769;28;20055;-74
2023/01/09 12:26:43;;;;;;;14.10;10.70;;;7.30;99.90;;;;;;5079291;28;20036;-75
2023/01/09 12:29:12;;;;;;;15.55;11.38;;;7.30;99.90;;;;;;5091396;28;20047;-75
2023/01/09 12:32:10;;;;;;;13.90;12.13;;;7.20;99.90;;;;;;5093863;28;20035;-73
2023/01/09 12:35:06;;;;;;;14.23;11.63;;;7.30;99.90;;;;;;5095132;28;20036;-72
2023/01/09 12:37:43;;;;;;;17.13;12.65;;;7.40;99.90;;;;;;5109750;28;20044;-73
2023/01/09 12:40:15;;;;;;;16.85;11.95;;;7.40;99.90;;;;;;5096952;28;20048;-70
2023/01/09 12:43:22;;;;;;;14.13;11.52;;;7.40;99.90;;;;;;5089852;28;20044;-70
2023/01/09 12:46:14;;;;;;;18.25;12.95;;;7.40;99.90;;;;;;5081560;28;20122;-73
2023/01/09 12:49:17;;;;;;;16.88;11.45;;;7.50;99.90;;;;;;5094948;28;21059;-74
2023/01/09 12:52:07;;;;;;;16.63;12.52;;;7.50;99.90;;;;;;5074605;28;20101;-74
2023/01/09 12:54:46;;;;;;;15.38;11.90;;;7.50;99.90;;;;;;5086583;28;20376;-73
2023/01/09 12:57:30;;;;;;;16.25;13.75;;;7.50;99.90;;;;;;5082874;28;20044;-75
2023/01/09 13:00:01;;;;;;;17.92;12.75;;;7.50;99.90;;;;;;5085868;28;20150;-74
2023/01/09 13:02:42;;;;;;;16.52;13.70;;;7.50;99.90;;;;;;5085570;28;20052;-75
2023/01/09 13:05:08;;;;;;;14.95;12.27;;;7.50;99.90;;;;;;5088038;28;20044;-74
2023/01/09 13:08:00;;;;;;;17.10;14.65;;;7.50;99.90;;;;;;5088404;28;20511;-74
2023/01/09 13:10:32;;;;;;;18.35;13.52;;;7.50;99.90;;;;;;5116690;27;20052;-74
2023/01/09 13:13:09;;;;;;;20.45;13.48;;;7.50;99.90;;;;;;5104561;27;20051;-72
2023/01/09 13:15:46;;;;;;;16.73;14.27;;;7.50;99.90;;;;;;5087745;28;20560;-73
2023/01/09 13:18:32;;;;;;;24.15;16.27;;;7.50;99.90;;;;;;5096892;28;20118;-72
2023/01/09 13:21:00;;;;;;;26.50;17.30;;;7.50;99.90;;;;;;5086591;28;20498;-74
2023/01/09 13:23:48;;;;;;;18.58;15.68;;;7.50;99.90;;;;;;5083202;28;20058;-73
2023/01/09 13:26:27;;;;;;;21.13;15.20;;;7.50;99.90;;;;;;5084518;28;20151;-72